Time;durP1;ratioP1;P1;durP2;ratioP2;P2;SDS_P1;SDS_P2;PMS_P1;PMS_P2;Temp;Humidity;BMP_temperature;BMP_pressure;BME280_temperature;BME280_humidity;BME280_pressure;Samples;Min_cycle;Max_cycle;Signal;HPM_P1;HPM_P2
2023/03/31 00:00:30;;;;;;;0.70;0.70;;;;;;;;;;5073045;28;21223;-73
2023/03/31 00:02:57;;;;;;;0.70;0.70;;;;;;;;;;5072167;28;20441;-74
2023/03/31 00:05:24;;;;;;;0.70;0.67;;;;;;;;;;5069647;28;20492;-73
2023/03/31 00:07:52;;;;;;;0.70;0.70;;;;;;;;;;5069571;28;20465;-74
2023/03/31 00:10:21;;;;;;;0.70;0.70;;;;;;;;;;5070556;28;20926;-73
2023/03/31 00:12:47;;;;;;;0.70;0.60;;;;;;;;;;5069726;28;20962;-73
2023/03/31 00:15:14;;;;;;;0.70;0.70;;;;;;;;;;5070843;28;20527;-74
2023/03/31 00:17:42;;;;;;;0.70;0.70;;;;;;;;;;5071997;28;20529;-73
2023/03/31 00:20:11;;;;;;;0.70;0.60;;;;;;;;;;5071466;28;20437;-73
2023/03/31 00:22:41;;;;;;;0.70;0.70;;;;;;;;;;5070103;28;21066;-74
2023/03/31 00:25:08;;;;;;;0.70;0.60;;;;;;;;;;5070410;28;20431;-74
2023/03/31 00:27:36;;;;;;;0.70;0.60;;;;;;;;;;5071896;28;21021;-73
2023/03/31 00:30:03;;;;;;;0.70;0.60;;;;;;;;;;5071805;28;20480;-74
2023/03/31 00:32:32;;;;;;;0.70;0.60;;;;;;;;;;5078924;28;20443;-74
2023/03/31 00:35:01;;;;;;;0.73;0.70;;;;;;;;;;5072972;28;20474;-72
2023/03/31 00:37:28;;;;;;;0.70;0.70;;;;;;;;;;5070953;28;20477;-73
2023/03/31 00:39:55;;;;;;;0.80;0.80;;;;;;;;;;5072213;28;20516;-74
2023/03/31 00:42:22;;;;;;;0.70;0.60;;;;;;;;;;5068006;28;20446;-74
2023/03/31 00:45:15;;;;;;;0.70;0.60;;;;;;;;;;5070080;28;20565;-73
2023/03/31 00:47:46;;;;;;;0.80;0.80;;;;;;;;;;5047587;28;20477;-72
2023/03/31 00:50:14;;;;;;;0.70;0.70;;;;;;;;;;5069060;28;20440;-73
2023/03/31 00:52:41;;;;;;;0.70;0.70;;;;;;;;;;5053537;28;20468;-73
2023/03/31 00:55:09;;;;;;;0.70;0.60;;;;;;;;;;5048185;28;21022;-73
2023/03/31 00:57:38;;;;;;;0.70;0.60;;;;;;;;;;5084832;28;20455;-73
2023/03/31 01:00:17;;;;;;;0.70;0.70;;;;;;;;;;5071236;28;20449;-74
2023/03/31 01:02:51;;;;;;;0.70;0.60;;;;;;;;;;5067333;28;20453;-72
2023/03/31 01:05:20;;;;;;;0.70;0.70;;;;;;;;;;5060470;28;21034;-74
2023/03/31 01:07:47;;;;;;;0.70;0.70;;;;;;;;;;5042788;28;20497;-72
2023/03/31 01:10:14;;;;;;;0.80;0.73;;;;;;;;;;5068024;28;20465;-74
2023/03/31 01:12:43;;;;;;;0.70;0.70;;;;;;;;;;5070686;28;20999;-73
2023/03/31 01:15:10;;;;;;;0.70;0.60;;;;;;;;;;5071652;28;20568;-74
2023/03/31 01:17:37;;;;;;;0.70;0.70;;;;;;;;;;5068511;28;21235;-73
2023/03/31 01:20:11;;;;;;;0.70;0.60;;;;;;;;;;5069846;28;20481;-74
2023/03/31 01:23:00;;;;;;;0.70;0.63;;;;;;;;;;5050923;28;20469;-73
2023/03/31 01:25:49;;;;;;;0.70;0.60;;;;;;;;;;5060371;28;21051;-74
2023/03/31 01:28:19;;;;;;;0.70;0.60;;;;;;;;;;5069460;28;20449;-73
2023/03/31 01:30:59;;;;;;;0.70;0.60;;;;;;;;;;5070024;28;20457;-72
2023/03/31 01:33:40;;;;;;;0.70;0.60;;;;;;;;;;5061607;28;20561;-74
2023/03/31 01:36:30;;;;;;;0.70;0.70;;;;;;;;;;5055966;28;20454;-72
2023/03/31 01:39:12;;;;;;;0.70;0.70;;;;;;;;;;5075810;28;20445;-72
2023/03/31 01:41:44;;;;;;;0.70;0.70;;;;;;;;;;5076066;28;20450;-73
2023/03/31 01:44:16;;;;;;;0.70;0.60;;;;;;;;;;5073601;28;20526;-72
2023/03/31 01:46:46;;;;;;;0.80;0.80;;;;;;;;;;5072719;28;20483;-72
2023/03/31 01:49:18;;;;;;;0.70;0.60;;;;;;;;;;5073714;28;20473;-73
2023/03/31 01:51:47;;;;;;;0.70;0.60;;;;;;;;;;5073786;28;20529;-73
2023/03/31 01:54:17;;;;;;;0.70;0.60;;;;;;;;;;5071783;28;20479;-72
2023/03/31 01:56:49;;;;;;;0.70;0.67;;;;;;;;;;5074114;28;20450;-73
2023/03/31 01:59:17;;;;;;;0.70;0.70;;;;;;;;;;5072644;28;20448;-73
2023/03/31 02:01:46;;;;;;;0.70;0.70;;;;;;;;;;5055661;28;21236;-74
2023/03/31 02:04:16;;;;;;;0.70;0.70;;;;;;;;;;5074751;28;20461;-73
2023/03/31 02:06:45;;;;;;;0.70;0.60;;;;;;;;;;5074278;28;20473;-75
2023/03/31 02:09:14;;;;;;;0.70;0.70;;;;;;;;;;5057128;28;20516;-73
2023/03/31 02:11:42;;;;;;;0.70;0.70;;;;;;;;;;5061083;28;20939;-73
2023/03/31 02:14:11;;;;;;;0.70;0.70;;;;;;;;;;5073349;28;20867;-73
2023/03/31 02:16:40;;;;;;;0.70;0.70;;;;;;;;;;5075873;28;20430;-73
2023/03/31 02:19:08;;;;;;;0.70;0.70;;;;;;;;;;5073732;28;20940;-73
2023/03/31 02:21:36;;;;;;;0.70;0.63;;;;;;;;;;5074681;28;20812;-73
2023/03/31 02:24:05;;;;;;;0.70;0.67;;;;;;;;;;5071535;28;21028;-73
2023/03/31 02:26:35;;;;;;;0.70;0.60;;;;;;;;;;5072780;28;20440;-73
2023/03/31 02:29:01;;;;;;;0.70;0.60;;;;;;;;;;5070571;28;20458;-73
2023/03/31 02:31:35;;;;;;;0.70;0.70;;;;;;;;;;5072377;28;20462;-73
2023/03/31 02:34:05;;;;;;;0.70;0.70;;;;;;;;;;5069835;28;20552;-75
2023/03/31 02:36:32;;;;;;;0.70;0.60;;;;;;;;;;5074839;28;20480;-74
2023/03/31 02:39:02;;;;;;;0.60;0.60;;;;;;;;;;5075492;28;20457;-74
2023/03/31 02:41:28;;;;;;;0.70;0.70;;;;;;;;;;5086857;28;20534;-73
2023/03/31 02:43:55;;;;;;;0.70;0.60;;;;;;;;;;5054730;28;20431;-74
2023/03/31 02:46:22;;;;;;;1.63;1.53;;;;;;;;;;5072223;28;20464;-75
2023/03/31 02:48:54;;;;;;;0.70;0.70;;;;;;;;;;5069931;28;20515;-74
2023/03/31 02:51:39;;;;;;;0.70;0.60;;;;;;;;;;5073239;28;20475;-76
2023/03/31 02:54:14;;;;;;;0.70;0.60;;;;;;;;;;5065804;28;20491;-75
2023/03/31 02:57:05;;;;;;;0.70;0.60;;;;;;;;;;5064225;28;20539;-76
2023/03/31 02:59:36;;;;;;;0.80;0.80;;;;;;;;;;5076929;28;20471;-75
2023/03/31 03:02:07;;;;;;;0.70;0.63;;;;;;;;;;5071781;28;20849;-74
2023/03/31 03:04:48;;;;;;;0.60;0.60;;;;;;;;;;5072668;28;20460;-75
2023/03/31 03:07:21;;;;;;;0.70;0.60;;;;;;;;;;5072710;28;20528;-76
2023/03/31 03:09:53;;;;;;;0.70;0.60;;;;;;;;;;5072499;28;20493;-76
2023/03/31 03:12:23;;;;;;;0.70;0.70;;;;;;;;;;5061571;28;20487;-75
2023/03/31 03:14:51;;;;;;;0.70;0.60;;;;;;;;;;5060964;28;20471;-75
2023/03/31 03:17:21;;;;;;;0.70;0.60;;;;;;;;;;5055319;28;20483;-75
2023/03/31 03:19:52;;;;;;;0.60;0.60;;;;;;;;;;5070933;28;20461;-75
2023/03/31 03:22:19;;;;;;;0.70;0.60;;;;;;;;;;5072137;28;20528;-75
2023/03/31 03:24:45;;;;;;;0.70;0.70;;;;;;;;;;5071622;28;20436;-75
2023/03/31 03:27:12;;;;;;;0.70;0.60;;;;;;;;;;5042923;28;20473;-75
2023/03/31 03:29:40;;;;;;;0.70;0.70;;;;;;;;;;5072678;28;20948;-75
2023/03/31 03:32:07;;;;;;;0.60;0.60;;;;;;;;;;5072676;28;20863;-76
2023/03/31 03:34:34;;;;;;;0.60;0.60;;;;;;;;;;5070342;28;20470;-75
2023/03/31 03:37:02;;;;;;;0.70;0.70;;;;;;;;;;5070190;28;20478;-76
2023/03/31 03:39:29;;;;;;;0.70;0.60;;;;;;;;;;5072033;28;20492;-76
2023/03/31 03:41:55;;;;;;;0.70;0.70;;;;;;;;;;5071108;28;21025;-75
2023/03/31 03:44:22;;;;;;;0.70;0.70;;;;;;;;;;5071392;28;20450;-75
2023/03/31 03:46:49;;;;;;;0.70;0.70;;;;;;;;;;5072700;28;20493;-76
2023/03/31 03:49:15;;;;;;;0.70;0.70;;;;;;;;;;5071910;28;20538;-76
2023/03/31 03:51:42;;;;;;;0.70;0.70;;;;;;;;;;5070284;28;20477;-77
2023/03/31 03:54:10;;;;;;;0.70;0.60;;;;;;;;;;5083104;28;20468;-76
2023/03/31 03:56:37;;;;;;;0.80;0.80;;;;;;;;;;5071931;28;20446;-76
2023/03/31 03:59:03;;;;;;;0.70;0.70;;;;;;;;;;5056691;28;20820;-76
2023/03/31 04:01:30;;;;;;;0.70;0.70;;;;;;;;;;5075010;28;20442;-76
2023/03/31 04:03:57;;;;;;;0.70;0.70;;;;;;;;;;5071996;28;20440;-74
2023/03/31 04:06:23;;;;;;;0.60;0.60;;;;;;;;;;5069606;28;20484;-76
2023/03/31 04:08:50;;;;;;;0.70;0.67;;;;;;;;;;5068002;28;20447;-76
2023/03/31 04:11:18;;;;;;;0.70;0.70;;;;;;;;;;5069580;28;20501;-76
2023/03/31 04:13:45;;;;;;;0.70;0.60;;;;;;;;;;5067564;28;20442;-76
2023/03/31 04:16:12;;;;;;;0.70;0.70;;;;;;;;;;5051546;28;20466;-76
2023/03/31 04:18:47;;;;;;;0.70;0.60;;;;;;;;;;5068287;28;20469;-76
2023/03/31 04:21:21;;;;;;;0.70;0.60;;;;;;;;;;5068471;28;20450;-75
2023/03/31 04:23:48;;;;;;;0.70;0.60;;;;;;;;;;5070663;28;20535;-76
2023/03/31 04:26:16;;;;;;;0.70;0.70;;;;;;;;;;5067243;28;20532;-77
2023/03/31 04:28:49;;;;;;;0.70;0.60;;;;;;;;;;5051687;28;20457;-77
2023/03/31 04:31:25;;;;;;;0.70;0.60;;;;;;;;;;5069285;28;20454;-77
2023/03/31 04:33:51;;;;;;;0.60;0.60;;;;;;;;;;5068556;28;20453;-78
2023/03/31 04:36:18;;;;;;;0.70;0.60;;;;;;;;;;5070325;28;20830;-77
2023/03/31 04:38:45;;;;;;;0.90;0.80;;;;;;;;;;5071571;28;20486;-76
2023/03/31 04:41:12;;;;;;;0.70;0.60;;;;;;;;;;5053109;28;20453;-76
2023/03/31 04:43:39;;;;;;;0.70;0.70;;;;;;;;;;5068954;28;20509;-77
2023/03/31 04:46:07;;;;;;;0.80;0.80;;;;;;;;;;5068841;28;20446;-75
2023/03/31 04:48:35;;;;;;;1.43;0.97;;;;;;;;;;5068871;28;20537;-76
2023/03/31 04:51:02;;;;;;;0.70;0.70;;;;;;;;;;5068994;28;20462;-76
2023/03/31 04:53:29;;;;;;;0.70;0.70;;;;;;;;;;5054455;28;20561;-76
2023/03/31 04:55:55;;;;;;;0.70;0.70;;;;;;;;;;5070447;28;20568;-76
2023/03/31 04:58:22;;;;;;;0.70;0.70;;;;;;;;;;5069743;28;20533;-76
2023/03/31 05:00:48;;;;;;;0.70;0.60;;;;;;;;;;5069790;28;20449;-77
2023/03/31 05:03:17;;;;;;;0.70;0.60;;;;;;;;;;5069466;28;20542;-76
2023/03/31 05:05:43;;;;;;;0.70;0.70;;;;;;;;;;5050945;28;20958;-76
2023/03/31 05:08:10;;;;;;;0.70;0.60;;;;;;;;;;5074764;28;20906;-76
2023/03/31 05:10:36;;;;;;;0.80;0.80;;;;;;;;;;5070435;28;20827;-77
2023/03/31 05:13:03;;;;;;;0.70;0.60;;;;;;;;;;5069983;28;20793;-74
2023/03/31 05:15:30;;;;;;;0.70;0.60;;;;;;;;;;5070334;28;20466;-76
2023/03/31 05:17:58;;;;;;;0.70;0.60;;;;;;;;;;5069071;28;20820;-76
2023/03/31 05:20:27;;;;;;;0.70;0.60;;;;;;;;;;5066764;28;20481;-74
2023/03/31 05:22:53;;;;;;;1.00;1.00;;;;;;;;;;5068033;28;20470;-76
2023/03/31 05:25:21;;;;;;;0.70;0.70;;;;;;;;;;5051340;28;20476;-76
2023/03/31 05:27:48;;;;;;;0.70;0.60;;;;;;;;;;5071702;28;20446;-75
2023/03/31 05:30:16;;;;;;;0.70;0.60;;;;;;;;;;5067281;28;20482;-76
2023/03/31 05:32:43;;;;;;;0.70;0.60;;;;;;;;;;5069472;28;20442;-76
2023/03/31 05:35:10;;;;;;;0.70;0.63;;;;;;;;;;5060834;28;20478;-75
2023/03/31 05:37:38;;;;;;;0.70;0.60;;;;;;;;;;5064749;28;20969;-75
2023/03/31 05:40:07;;;;;;;0.70;0.70;;;;;;;;;;5068586;28;20450;-75
2023/03/31 05:42:33;;;;;;;0.70;0.60;;;;;;;;;;5069276;28;20454;-76
2023/03/31 05:45:00;;;;;;;0.67;0.60;;;;;;;;;;5071210;28;20784;-76
2023/03/31 05:47:27;;;;;;;0.70;0.60;;;;;;;;;;5067931;28;20461;-74
2023/03/31 05:49:54;;;;;;;0.70;0.60;;;;;;;;;;5065629;28;20470;-77
2023/03/31 05:52:21;;;;;;;0.70;0.60;;;;;;;;;;5067359;28;20796;-76
2023/03/31 05:54:50;;;;;;;0.70;0.70;;;;;;;;;;5066132;28;20499;-76
2023/03/31 05:57:17;;;;;;;0.70;0.60;;;;;;;;;;5067245;28;20458;-76
2023/03/31 05:59:43;;;;;;;0.80;0.80;;;;;;;;;;5057533;28;20508;-77
2023/03/31 06:02:11;;;;;;;0.70;0.70;;;;;;;;;;5069672;28;20452;-76
2023/03/31 06:04:38;;;;;;;0.70;0.70;;;;;;;;;;5070200;28;20453;-74
2023/03/31 06:07:05;;;;;;;0.70;0.60;;;;;;;;;;5048857;28;20559;-76
2023/03/31 06:09:31;;;;;;;0.70;0.70;;;;;;;;;;5067915;28;20510;-73
2023/03/31 06:11:59;;;;;;;0.70;0.70;;;;;;;;;;5067935;28;20493;-76
2023/03/31 06:14:27;;;;;;;0.70;0.60;;;;;;;;;;5065456;28;20450;-76
2023/03/31 06:16:56;;;;;;;0.70;0.70;;;;;;;;;;5067423;28;20557;-76
2023/03/31 06:19:23;;;;;;;0.77;0.77;;;;;;;;;;5075221;28;20451;-76
2023/03/31 06:21:51;;;;;;;0.70;0.70;;;;;;;;;;5072045;28;20546;-76
2023/03/31 06:24:18;;;;;;;0.70;0.70;;;;;;;;;;5074601;28;20461;-76
2023/03/31 06:26:44;;;;;;;0.70;0.60;;;;;;;;;;5070304;28;20532;-76
2023/03/31 06:29:12;;;;;;;0.70;0.63;;;;;;;;;;5064293;28;20461;-76
2023/03/31 06:31:39;;;;;;;0.70;0.70;;;;;;;;;;5063511;28;20464;-76
2023/03/31 06:34:06;;;;;;;0.80;0.80;;;;;;;;;;5071955;28;20514;-76
2023/03/31 06:36:32;;;;;;;0.70;0.60;;;;;;;;;;5055006;28;20482;-76
2023/03/31 06:38:59;;;;;;;0.70;0.60;;;;;;;;;;5052216;28;20500;-77
2023/03/31 06:41:26;;;;;;;0.70;0.70;;;;;;;;;;5070297;28;20540;-76
2023/03/31 06:43:52;;;;;;;0.70;0.60;;;;;;;;;;5071279;28;20456;-76
2023/03/31 06:46:21;;;;;;;0.70;0.70;;;;;;;;;;5067019;28;20447;-76
2023/03/31 06:48:48;;;;;;;0.70;0.60;;;;;;;;;;5069649;28;20456;-77
2023/03/31 06:51:15;;;;;;;0.70;0.63;;;;;;;;;;5062281;28;20825;-74
2023/03/31 06:53:43;;;;;;;0.70;0.60;;;;;;;;;;5073031;28;20443;-74
2023/03/31 06:56:10;;;;;;;0.70;0.60;;;;;;;;;;5073053;28;20463;-77
2023/03/31 06:58:37;;;;;;;0.70;0.67;;;;;;;;;;5069807;28;20453;-76
2023/03/31 07:01:05;;;;;;;0.70;0.60;;;;;;;;;;5070777;28;20486;-76
2023/03/31 07:03:33;;;;;;;0.70;0.60;;;;;;;;;;5069265;28;20489;-76
2023/03/31 07:06:01;;;;;;;0.70;0.70;;;;;;;;;;5085375;28;20850;-77
2023/03/31 07:08:28;;;;;;;0.67;0.60;;;;;;;;;;5069261;28;20476;-76
2023/03/31 07:10:57;;;;;;;0.70;0.70;;;;;;;;;;5066391;28;20829;-76
2023/03/31 07:13:24;;;;;;;0.70;0.60;;;;;;;;;;5050907;28;20471;-77
2023/03/31 07:15:50;;;;;;;0.70;0.63;;;;;;;;;;5069808;28;20477;-77
2023/03/31 07:18:18;;;;;;;0.70;0.60;;;;;;;;;;5070646;28;20539;-76
2023/03/31 07:20:48;;;;;;;0.80;0.80;;;;;;;;;;5067842;28;20446;-77
2023/03/31 07:23:15;;;;;;;0.70;0.63;;;;;;;;;;5067184;28;20998;-76
2023/03/31 07:25:42;;;;;;;0.70;0.70;;;;;;;;;;5068841;28;20540;-75
2023/03/31 07:28:09;;;;;;;0.70;0.60;;;;;;;;;;5065572;28;20457;-76
2023/03/31 07:30:36;;;;;;;0.80;0.80;;;;;;;;;;5066417;28;21256;-76
2023/03/31 07:33:02;;;;;;;0.70;0.70;;;;;;;;;;5053073;28;20517;-75
2023/03/31 07:35:29;;;;;;;0.70;0.70;;;;;;;;;;5069892;28;20557;-76
2023/03/31 07:37:58;;;;;;;0.80;0.80;;;;;;;;;;5043455;28;20493;-75
2023/03/31 07:40:26;;;;;;;0.70;0.70;;;;;;;;;;5075701;28;20496;-76
2023/03/31 07:42:53;;;;;;;0.70;0.60;;;;;;;;;;5067254;28;20511;-74
2023/03/31 07:45:20;;;;;;;0.70;0.70;;;;;;;;;;5067870;28;22234;-76
2023/03/31 07:47:47;;;;;;;0.70;0.63;;;;;;;;;;5069837;28;20462;-75
2023/03/31 07:50:15;;;;;;;0.70;0.60;;;;;;;;;;5067320;28;21012;-74
2023/03/31 07:52:41;;;;;;;0.77;0.70;;;;;;;;;;5069411;28;20566;-74
2023/03/31 07:55:13;;;;;;;0.70;0.63;;;;;;;;;;5070461;28;20518;-73
2023/03/31 07:57:40;;;;;;;0.70;0.70;;;;;;;;;;5071000;28;20442;-75
2023/03/31 08:00:11;;;;;;;0.70;0.60;;;;;;;;;;5067419;28;21477;-74
2023/03/31 08:02:38;;;;;;;0.70;0.60;;;;;;;;;;5069012;28;20447;-77
2023/03/31 08:05:06;;;;;;;0.70;0.60;;;;;;;;;;5066112;28;20518;-75
2023/03/31 08:07:33;;;;;;;0.80;0.80;;;;;;;;;;5073347;28;20481;-74
2023/03/31 08:10:00;;;;;;;0.70;0.70;;;;;;;;;;5069158;28;20457;-75
2023/03/31 08:12:28;;;;;;;0.77;0.73;;;;;;;;;;5068298;28;20455;-74
2023/03/31 08:14:55;;;;;;;0.70;0.70;;;;;;;;;;5066469;28;20447;-74
2023/03/31 08:17:22;;;;;;;0.70;0.70;;;;;;;;;;5082660;28;20460;-75
2023/03/31 08:19:50;;;;;;;0.70;0.70;;;;;;;;;;5067557;28;20466;-73
2023/03/31 08:22:17;;;;;;;0.70;0.60;;;;;;;;;;5069484;28;20554;-73
2023/03/31 08:24:45;;;;;;;0.70;0.70;;;;;;;;;;5072795;28;20438;-75
2023/03/31 08:27:12;;;;;;;0.80;0.80;;;;;;;;;;5069245;28;20438;-75
2023/03/31 08:29:40;;;;;;;0.70;0.70;;;;;;;;;;5071201;28;20487;-74
2023/03/31 08:32:07;;;;;;;0.80;0.70;;;;;;;;;;5068199;28;20450;-75
2023/03/31 08:34:35;;;;;;;0.70;0.70;;;;;;;;;;5069821;28;20465;-75
2023/03/31 08:37:03;;;;;;;0.70;0.70;;;;;;;;;;5069550;28;20485;-75
2023/03/31 08:39:31;;;;;;;0.77;0.73;;;;;;;;;;5069785;28;20442;-75
2023/03/31 08:41:59;;;;;;;0.70;0.60;;;;;;;;;;5067798;28;20471;-75
2023/03/31 08:44:29;;;;;;;0.70;0.67;;;;;;;;;;5068465;28;20478;-75
2023/03/31 08:46:58;;;;;;;0.80;0.80;;;;;;;;;;5063738;28;20450;-75
2023/03/31 08:49:25;;;;;;;0.70;0.70;;;;;;;;;;5067974;28;20492;-75
2023/03/31 08:51:54;;;;;;;0.80;0.80;;;;;;;;;;5069864;28;20475;-75
2023/03/31 08:54:30;;;;;;;0.80;0.80;;;;;;;;;;5056051;28;20993;-75
2023/03/31 08:56:57;;;;;;;0.70;0.70;;;;;;;;;;5069639;28;20944;-76
2023/03/31 08:59:26;;;;;;;0.80;0.70;;;;;;;;;;5068982;28;20586;-76
2023/03/31 09:01:56;;;;;;;0.73;0.70;;;;;;;;;;5054174;28;20450;-75
2023/03/31 09:04:32;;;;;;;1.00;1.00;;;;;;;;;;5069091;28;20450;-75
2023/03/31 09:07:03;;;;;;;0.70;0.60;;;;;;;;;;5052569;28;20470;-75
2023/03/31 09:09:34;;;;;;;0.80;0.80;;;;;;;;;;5070025;28;20538;-76
2023/03/31 09:12:03;;;;;;;3.23;3.03;;;;;;;;;;5070488;28;20435;-76
2023/03/31 09:14:34;;;;;;;0.80;0.80;;;;;;;;;;5060590;28;21185;-75
2023/03/31 09:17:07;;;;;;;0.77;0.70;;;;;;;;;;5067913;28;20466;-76
2023/03/31 09:19:37;;;;;;;0.70;0.67;;;;;;;;;;5050636;28;20479;-75
2023/03/31 09:22:05;;;;;;;0.80;0.70;;;;;;;;;;5060231;28;20485;-75
2023/03/31 09:24:35;;;;;;;0.80;0.73;;;;;;;;;;5066784;28;20924;-75
2023/03/31 09:27:03;;;;;;;0.80;0.80;;;;;;;;;;5068987;28;20427;-74
2023/03/31 09:29:35;;;;;;;0.70;0.70;;;;;;;;;;5069522;28;20455;-76
2023/03/31 09:32:12;;;;;;;0.70;0.70;;;;;;;;;;5067553;28;20810;-74
2023/03/31 09:34:40;;;;;;;0.70;0.70;;;;;;;;;;5060821;28;20451;-75
2023/03/31 09:37:08;;;;;;;0.80;0.70;;;;;;;;;;5067579;28;20482;-73
2023/03/31 09:39:35;;;;;;;0.80;0.77;;;;;;;;;;5070035;28;20454;-76
2023/03/31 09:42:01;;;;;;;0.70;0.70;;;;;;;;;;5070530;28;20783;-75
2023/03/31 09:44:33;;;;;;;0.77;0.70;;;;;;;;;;5064860;28;20462;-75
2023/03/31 09:47:02;;;;;;;0.80;0.77;;;;;;;;;;5052401;28;20456;-75
2023/03/31 09:49:32;;;;;;;0.70;0.70;;;;;;;;;;5067741;28;20450;-75
2023/03/31 09:52:05;;;;;;;1.07;1.00;;;;;;;;;;5073243;28;20558;-74
2023/03/31 09:54:37;;;;;;;0.70;0.67;;;;;;;;;;5067273;28;20545;-75
2023/03/31 09:57:21;;;;;;;0.80;0.80;;;;;;;;;;5055260;28;20515;-74
2023/03/31 09:59:50;;;;;;;1.93;1.47;;;;;;;;;;5071935;28;20454;-75
2023/03/31 10:02:24;;;;;;;0.70;0.70;;;;;;;;;;5074145;28;20465;-74
2023/03/31 10:04:51;;;;;;;0.80;0.70;;;;;;;;;;5069819;28;20962;-73
2023/03/31 10:07:21;;;;;;;0.80;0.80;;;;;;;;;;5070909;28;20962;-74
2023/03/31 10:09:48;;;;;;;0.80;0.80;;;;;;;;;;5071514;28;20438;-76
2023/03/31 10:12:16;;;;;;;0.80;0.70;;;;;;;;;;5082841;28;20818;-74
2023/03/31 10:14:43;;;;;;;0.77;0.77;;;;;;;;;;5071834;28;20791;-74
2023/03/31 10:17:13;;;;;;;0.70;0.70;;;;;;;;;;5072140;28;20562;-73
2023/03/31 10:19:45;;;;;;;0.70;0.60;;;;;;;;;;5071630;28;20446;-72
2023/03/31 10:22:13;;;;;;;0.70;0.70;;;;;;;;;;5068498;28;20962;-73
2023/03/31 10:24:43;;;;;;;0.70;0.70;;;;;;;;;;5074383;28;20534;-74
2023/03/31 10:27:18;;;;;;;0.80;0.70;;;;;;;;;;5071334;28;20478;-73
2023/03/31 10:29:45;;;;;;;0.80;0.73;;;;;;;;;;5068047;28;20453;-75
2023/03/31 10:32:17;;;;;;;0.70;0.63;;;;;;;;;;5054436;28;20511;-73
2023/03/31 10:34:45;;;;;;;0.70;0.70;;;;;;;;;;5070804;28;20446;-73
2023/03/31 10:37:15;;;;;;;0.70;0.70;;;;;;;;;;5069231;28;20497;-73
2023/03/31 10:39:45;;;;;;;0.80;0.70;;;;;;;;;;5072612;28;20446;-71
2023/03/31 10:42:18;;;;;;;0.90;0.90;;;;;;;;;;5070939;28;20855;-74
2023/03/31 10:44:45;;;;;;;0.80;0.70;;;;;;;;;;5071824;28;20410;-75
2023/03/31 10:47:20;;;;;;;0.80;0.80;;;;;;;;;;5068391;28;20550;-75
2023/03/31 10:49:48;;;;;;;0.80;0.80;;;;;;;;;;5071146;28;20425;-72
2023/03/31 10:52:16;;;;;;;0.80;0.80;;;;;;;;;;5070888;28;20459;-73
2023/03/31 10:54:51;;;;;;;0.77;0.70;;;;;;;;;;5072086;28;20412;-74
2023/03/31 10:57:20;;;;;;;0.90;0.90;;;;;;;;;;5070402;28;20529;-72
2023/03/31 10:59:57;;;;;;;0.77;0.73;;;;;;;;;;5074521;28;20480;-73
2023/03/31 11:02:41;;;;;;;0.90;0.90;;;;;;;;;;5066706;28;20450;-73
2023/03/31 11:05:13;;;;;;;0.80;0.70;;;;;;;;;;5069538;28;20410;-73
2023/03/31 11:07:47;;;;;;;0.77;0.70;;;;;;;;;;5069157;28;20505;-73
2023/03/31 11:10:33;;;;;;;0.70;0.70;;;;;;;;;;5045159;28;20543;-73
2023/03/31 11:13:05;;;;;;;0.80;0.70;;;;;;;;;;5071402;28;20442;-72
2023/03/31 11:15:35;;;;;;;0.73;0.70;;;;;;;;;;5059589;28;20440;-71
2023/03/31 11:18:07;;;;;;;0.80;0.70;;;;;;;;;;5068914;28;20973;-72
2023/03/31 11:20:40;;;;;;;0.70;0.70;;;;;;;;;;5054611;28;20458;-73
2023/03/31 11:23:13;;;;;;;0.70;0.70;;;;;;;;;;5061979;28;21082;-74
2023/03/31 11:25:46;;;;;;;0.70;0.60;;;;;;;;;;5059476;28;20486;-75
2023/03/31 11:28:32;;;;;;;0.80;0.80;;;;;;;;;;5071065;28;20471;-72
2023/03/31 11:31:05;;;;;;;0.80;0.70;;;;;;;;;;5070005;28;21062;-71
2023/03/31 11:33:39;;;;;;;0.70;0.70;;;;;;;;;;5060710;28;20560;-75
2023/03/31 11:36:12;;;;;;;0.70;0.70;;;;;;;;;;5051866;28;20534;-74
2023/03/31 11:38:56;;;;;;;0.70;0.70;;;;;;;;;;5053092;28;20562;-74
2023/03/31 11:41:27;;;;;;;0.80;0.77;;;;;;;;;;5067445;28;20446;-74
2023/03/31 11:43:55;;;;;;;0.70;0.70;;;;;;;;;;5068933;28;20458;-74
2023/03/31 11:46:24;;;;;;;0.70;0.70;;;;;;;;;;5073627;28;20439;-74
2023/03/31 11:48:56;;;;;;;0.70;0.70;;;;;;;;;;5072971;28;20981;-74
2023/03/31 11:51:24;;;;;;;0.80;0.70;;;;;;;;;;5068563;28;20507;-74
2023/03/31 11:53:52;;;;;;;0.80;0.70;;;;;;;;;;5072040;28;20816;-74
2023/03/31 11:56:21;;;;;;;0.70;0.70;;;;;;;;;;5071237;28;20500;-73
2023/03/31 11:58:51;;;;;;;0.80;0.80;;;;;;;;;;5068092;28;20451;-76
2023/03/31 12:01:20;;;;;;;0.80;0.70;;;;;;;;;;5070539;28;20439;-75
2023/03/31 12:03:51;;;;;;;0.80;0.70;;;;;;;;;;5087967;28;20482;-75
2023/03/31 12:06:20;;;;;;;0.80;0.70;;;;;;;;;;5071336;28;20446;-76
2023/03/31 12:08:52;;;;;;;0.80;0.80;;;;;;;;;;5073542;28;20988;-75
2023/03/31 12:11:23;;;;;;;0.80;0.70;;;;;;;;;;5070531;28;20487;-75
2023/03/31 12:13:55;;;;;;;0.80;0.80;;;;;;;;;;5070858;28;20533;-75
2023/03/31 12:16:22;;;;;;;0.80;0.70;;;;;;;;;;5069362;28;20538;-75
2023/03/31 12:18:56;;;;;;;0.80;0.80;;;;;;;;;;5069853;28;20463;-75
2023/03/31 12:21:23;;;;;;;0.80;0.70;;;;;;;;;;5071343;28;20486;-75
2023/03/31 12:23:50;;;;;;;0.70;0.70;;;;;;;;;;5069927;28;20502;-75
2023/03/31 12:26:22;;;;;;;0.70;0.67;;;;;;;;;;5070477;28;20469;-74
2023/03/31 12:28:51;;;;;;;0.80;0.70;;;;;;;;;;5068800;28;20435;-75
2023/03/31 12:31:21;;;;;;;0.90;0.90;;;;;;;;;;5070811;28;20999;-74
2023/03/31 12:33:50;;;;;;;0.70;0.60;;;;;;;;;;5069527;28;20459;-75
2023/03/31 12:36:22;;;;;;;0.70;0.60;;;;;;;;;;5070759;28;20439;-75
2023/03/31 12:38:53;;;;;;;0.70;0.67;;;;;;;;;;5070487;28;20479;-74
2023/03/31 12:41:23;;;;;;;0.80;0.70;;;;;;;;;;5069008;28;20431;-73
2023/03/31 12:43:55;;;;;;;0.80;0.80;;;;;;;;;;5070761;28;20938;-74
2023/03/31 12:46:33;;;;;;;0.80;0.70;;;;;;;;;;5069649;28;21077;-73
2023/03/31 12:49:10;;;;;;;0.80;0.80;;;;;;;;;;5068651;28;20454;-74
2023/03/31 12:51:44;;;;;;;0.80;0.80;;;;;;;;;;5068963;28;20993;-74
2023/03/31 12:54:21;;;;;;;0.77;0.73;;;;;;;;;;5068284;28;20477;-75
2023/03/31 12:57:01;;;;;;;0.80;0.80;;;;;;;;;;5071606;28;20507;-74
2023/03/31 12:59:31;;;;;;;0.70;0.70;;;;;;;;;;5070571;28;20972;-74
2023/03/31 13:02:21;;;;;;;0.70;0.70;;;;;;;;;;5071512;28;20434;-75
2023/03/31 13:04:50;;;;;;;0.80;0.80;;;;;;;;;;5061076;28;20484;-74
2023/03/31 13:07:32;;;;;;;0.70;0.67;;;;;;;;;;5070655;28;20451;-76
2023/03/31 13:10:20;;;;;;;0.70;0.67;;;;;;;;;;5069463;28;20507;-75
2023/03/31 13:12:55;;;;;;;0.83;0.83;;;;;;;;;;5069278;28;20451;-76
2023/03/31 13:15:22;;;;;;;4.50;1.03;;;;;;;;;;5069366;28;20461;-74
2023/03/31 13:17:55;;;;;;;0.70;0.70;;;;;;;;;;5069125;28;20463;-73
2023/03/31 13:20:31;;;;;;;0.80;0.77;;;;;;;;;;5067689;28;20441;-74
2023/03/31 13:22:59;;;;;;;0.80;0.80;;;;;;;;;;5069729;28;20583;-73
2023/03/31 13:25:41;;;;;;;0.80;0.77;;;;;;;;;;5069476;28;20462;-74
2023/03/31 13:28:09;;;;;;;0.70;0.60;;;;;;;;;;5070055;28;20452;-74
2023/03/31 13:30:47;;;;;;;0.80;0.80;;;;;;;;;;5069287;28;20457;-75
2023/03/31 13:33:17;;;;;;;0.70;0.70;;;;;;;;;;5071509;28;20446;-75
2023/03/31 13:35:46;;;;;;;0.70;0.70;;;;;;;;;;5069088;28;21023;-75
2023/03/31 13:38:17;;;;;;;0.80;0.80;;;;;;;;;;5068847;28;20471;-74
2023/03/31 13:41:16;;;;;;;0.70;0.70;;;;;;;;;;5070169;28;20520;-76
2023/03/31 13:43:52;;;;;;;0.70;0.70;;;;;;;;;;4984134;28;20480;-74
2023/03/31 13:46:31;;;;;;;0.73;0.70;;;;;;;;;;5009597;28;20454;-76
2023/03/31 13:49:02;;;;;;;0.70;0.70;;;;;;;;;;5044250;28;20813;-75
2023/03/31 13:51:35;;;;;;;0.80;0.70;;;;;;;;;;5055895;28;20473;-75
2023/03/31 13:54:22;;;;;;;0.73;0.70;;;;;;;;;;5069678;28;20433;-75
2023/03/31 13:57:01;;;;;;;0.70;0.70;;;;;;;;;;5070217;28;20434;-75
2023/03/31 13:59:33;;;;;;;0.80;0.80;;;;;;;;;;5069952;28;20836;-73
2023/03/31 14:02:18;;;;;;;0.70;0.67;;;;;;;;;;5069452;28;20439;-74
2023/03/31 14:04:55;;;;;;;0.70;0.70;;;;;;;;;;5048536;28;20523;-75
2023/03/31 14:07:29;;;;;;;0.70;0.70;;;;;;;;;;5072014;28;20543;-75
2023/03/31 14:09:58;;;;;;;0.70;0.70;;;;;;;;;;5065780;28;20451;-76
2023/03/31 14:12:30;;;;;;;0.80;0.70;;;;;;;;;;5068824;28;20443;-75
2023/03/31 14:14:56;;;;;;;0.80;0.73;;;;;;;;;;5069975;28;20495;-75
2023/03/31 14:17:26;;;;;;;0.70;0.60;;;;;;;;;;5070419;28;20435;-75
2023/03/31 14:20:12;;;;;;;0.70;0.60;;;;;;;;;;5086932;28;20472;-74
2023/03/31 14:22:45;;;;;;;0.80;0.70;;;;;;;;;;5069047;28;20462;-75
2023/03/31 14:25:15;;;;;;;0.80;0.70;;;;;;;;;;5083794;28;20476;-74
2023/03/31 14:27:46;;;;;;;0.70;0.70;;;;;;;;;;5062971;28;20442;-76
2023/03/31 14:30:17;;;;;;;0.70;0.60;;;;;;;;;;5064761;28;20488;-74
2023/03/31 14:32:46;;;;;;;0.70;0.70;;;;;;;;;;5067293;28;20545;-75
2023/03/31 14:35:25;;;;;;;0.70;0.70;;;;;;;;;;5067770;28;20445;-74
2023/03/31 14:37:54;;;;;;;0.77;0.77;;;;;;;;;;5054544;28;20507;-74
2023/03/31 14:40:21;;;;;;;0.70;0.60;;;;;;;;;;5075985;28;20793;-75
2023/03/31 14:42:48;;;;;;;0.70;0.60;;;;;;;;;;5069759;28;20920;-76
2023/03/31 14:45:16;;;;;;;0.70;0.70;;;;;;;;;;5073827;28;20537;-76
2023/03/31 14:47:52;;;;;;;0.70;0.70;;;;;;;;;;5074156;28;20451;-77
2023/03/31 14:50:19;;;;;;;0.80;0.80;;;;;;;;;;5071042;28;20768;-76
2023/03/31 14:52:46;;;;;;;0.80;0.70;;;;;;;;;;5073748;28;20489;-76
2023/03/31 14:55:15;;;;;;;0.70;0.60;;;;;;;;;;5076046;28;20542;-74
2023/03/31 14:57:44;;;;;;;0.70;0.70;;;;;;;;;;5063253;28;20511;-74
2023/03/31 15:00:13;;;;;;;0.70;0.70;;;;;;;;;;5054995;28;20885;-75